createdAt,value
2019-03-22T00:02:59.550Z,6.73
2019-03-22T00:05:59.961Z,6.40
2019-03-22T00:09:00.304Z,6.10
2019-03-22T00:12:00.778Z,7.17
2019-03-22T00:15:01.245Z,7.53
2019-03-22T00:18:01.741Z,6.70
2019-03-22T00:21:02.682Z,7.20
2019-03-22T00:24:03.027Z,6.50
2019-03-22T00:27:03.329Z,7.10
2019-03-22T00:30:04.106Z,8.93
2019-03-22T00:33:05.267Z,8.57
2019-03-22T00:36:05.567Z,7.20
2019-03-22T00:39:06.377Z,6.90
2019-03-22T00:42:06.704Z,7.60
2019-03-22T00:45:07.122Z,7.80
2019-03-22T00:48:08.334Z,7.73
2019-03-22T00:51:08.630Z,8.03
2019-03-22T00:54:09.005Z,7.20
2019-03-22T00:57:09.345Z,6.73
2019-03-22T01:00:09.757Z,11.30
2019-03-22T01:03:10.134Z,7.43
2019-03-22T01:06:10.449Z,7.27
2019-03-22T01:09:11.174Z,6.90
2019-03-22T01:12:12.350Z,7.03
2019-03-22T01:15:12.808Z,7.63
2019-03-22T01:18:13.910Z,7.37
2019-03-22T01:21:14.310Z,7.20
2019-03-22T01:24:14.642Z,7.50
2019-03-22T01:27:15.035Z,7.53
2019-03-22T01:30:15.313Z,7.33
2019-03-22T01:33:15.794Z,6.97
2019-03-22T01:36:16.442Z,7.33
2019-03-22T01:39:16.862Z,7.40
2019-03-22T01:42:18.129Z,8.27
2019-03-22T01:45:19.720Z,8.85
2019-03-22T01:48:20.325Z,8.23
2019-03-22T01:51:21.662Z,8.00
2019-03-22T01:54:23.243Z,8.23
2019-03-22T01:57:24.183Z,7.90
2019-03-22T02:00:25.141Z,8.33
2019-03-22T02:03:25.779Z,8.60
2019-03-22T02:06:26.434Z,8.40
2019-03-22T02:09:27.623Z,8.05
2019-03-22T02:12:28.520Z,8.80
2019-03-22T02:15:29.797Z,8.80
2019-03-22T02:18:30.777Z,8.90
2019-03-22T02:21:31.962Z,8.53
2019-03-22T02:24:32.606Z,8.73
2019-03-22T02:27:33.555Z,8.87
2019-03-22T02:30:34.391Z,9.13
2019-03-22T02:33:35.039Z,9.20
2019-03-22T02:36:36.285Z,8.70
2019-03-22T02:39:37.065Z,8.48
2019-03-22T02:42:39.220Z,9.00
2019-03-22T02:45:27.857Z,9.00
2019-03-22T02:48:35.929Z,8.80
2019-03-22T02:51:37.166Z,8.48
2019-03-22T02:54:38.022Z,8.83
2019-03-22T02:57:40.671Z,8.93
2019-03-22T03:00:41.923Z,9.10
2019-03-22T03:03:42.982Z,8.30
2019-03-22T03:06:44.007Z,9.43
2019-03-22T03:09:45.222Z,8.43
2019-03-22T03:12:46.229Z,9.00
2019-03-22T03:15:46.969Z,9.00
2019-03-22T03:18:48.069Z,8.93
2019-03-22T03:21:49.457Z,9.60
2019-03-22T03:24:50.818Z,8.17
2019-03-22T03:27:52.093Z,9.20
2019-03-22T03:30:52.779Z,8.90
2019-03-22T03:33:53.265Z,8.80
2019-03-22T03:36:53.769Z,9.47
2019-03-22T03:39:55.323Z,9.10
2019-03-22T03:42:56.287Z,9.18
2019-03-22T03:45:57.146Z,8.53
2019-03-22T03:48:57.570Z,8.70
2019-03-22T03:51:58.471Z,9.23
2019-03-22T03:54:59.527Z,8.80
2019-03-22T03:58:00.221Z,8.60
2019-03-22T04:01:01.175Z,8.87
2019-03-22T04:04:02.086Z,9.10
2019-03-22T04:07:03.051Z,9.37
2019-03-22T04:10:03.859Z,9.13
2019-03-22T04:13:05.431Z,9.27
2019-03-22T04:16:06.129Z,9.08
2019-03-22T04:19:07.254Z,8.93
2019-03-22T04:22:08.365Z,9.30
2019-03-22T04:25:09.262Z,9.07
2019-03-22T04:28:09.892Z,8.70
2019-03-22T04:31:10.822Z,8.60
2019-03-22T04:34:11.670Z,9.45
2019-03-22T04:37:12.464Z,10.00
2019-03-22T04:40:13.401Z,9.43
2019-03-22T04:43:14.022Z,9.53
2019-03-22T04:46:15.098Z,45.50
2019-03-22T04:49:15.674Z,29.70
2019-03-22T04:52:16.786Z,16.00
2019-03-22T04:55:17.534Z,10.83
2019-03-22T04:58:18.393Z,10.30
2019-03-22T05:01:19.566Z,13.68
2019-03-22T05:04:20.965Z,10.10
2019-03-22T05:07:22.703Z,9.48
2019-03-22T05:10:23.546Z,9.00
2019-03-22T05:13:24.171Z,12.50
2019-03-22T05:16:24.985Z,10.57
2019-03-22T05:19:26.219Z,9.57
2019-03-22T05:22:27.398Z,9.20
2019-03-22T05:25:28.927Z,8.78
2019-03-22T05:28:29.638Z,9.43
2019-03-22T05:31:30.718Z,9.65
2019-03-22T05:34:31.569Z,9.20
2019-03-22T05:37:32.618Z,9.17
2019-03-22T05:40:33.344Z,9.10
2019-03-22T05:43:34.118Z,8.73
2019-03-22T05:46:34.714Z,9.17
2019-03-22T05:49:35.593Z,9.10
2019-03-22T05:52:36.055Z,9.23
2019-03-22T05:55:36.773Z,9.20
2019-03-22T05:58:37.644Z,11.13
2019-03-22T06:01:38.445Z,11.80
2019-03-22T06:04:39.338Z,11.83
2019-03-22T06:07:40.405Z,12.10
2019-03-22T06:10:41.327Z,12.33
2019-03-22T06:13:44.298Z,11.27
2019-03-22T06:16:44.619Z,10.70
2019-03-22T06:19:45.695Z,10.57
2019-03-22T06:22:46.614Z,9.53
2019-03-22T06:25:47.677Z,10.00
2019-03-22T06:28:48.600Z,9.90
2019-03-22T06:31:49.625Z,10.50
2019-03-22T06:34:51.098Z,10.45
2019-03-22T06:37:51.959Z,11.10
2019-03-22T06:40:52.816Z,11.93
2019-03-22T06:43:53.770Z,10.90
2019-03-22T06:46:54.683Z,11.57
2019-03-22T06:49:55.714Z,15.23
2019-03-22T06:52:56.391Z,13.10
2019-03-22T06:55:57.270Z,11.63
2019-03-22T06:58:58.101Z,10.37
2019-03-22T07:01:59.095Z,9.73
2019-03-22T07:05:00.016Z,9.93
2019-03-22T07:08:00.898Z,10.50
2019-03-22T07:11:01.825Z,11.33
2019-03-22T07:14:02.922Z,9.97
2019-03-22T07:17:03.945Z,9.53
2019-03-22T07:20:04.540Z,9.83
2019-03-22T07:23:05.109Z,10.50
2019-03-22T07:26:06.067Z,10.10
2019-03-22T07:29:06.846Z,11.30
2019-03-22T07:32:08.231Z,11.50
2019-03-22T07:35:08.821Z,12.20
2019-03-22T07:38:09.946Z,13.50
2019-03-22T07:41:11.164Z,13.87
2019-03-22T07:44:12.658Z,13.10
2019-03-22T07:47:13.901Z,14.60
2019-03-22T07:50:15.013Z,13.67
2019-03-22T07:53:16.763Z,13.08
2019-03-22T07:56:17.445Z,11.40
2019-03-22T07:59:18.332Z,11.70
2019-03-22T08:02:18.639Z,10.73
2019-03-22T08:05:19.250Z,11.03
2019-03-22T08:08:20.248Z,9.93
2019-03-22T08:11:20.742Z,9.43
2019-03-22T08:14:21.379Z,9.50
2019-03-22T08:17:22.237Z,9.50
2019-03-22T08:20:22.929Z,10.30
2019-03-22T08:23:23.806Z,10.57
2019-03-22T08:26:24.590Z,10.37
2019-03-22T08:29:25.167Z,9.33
2019-03-22T08:32:26.424Z,9.67
2019-03-22T08:35:26.898Z,9.20
2019-03-22T08:38:27.823Z,9.17
2019-03-22T08:41:29.289Z,9.30
2019-03-22T08:44:30.593Z,9.57
2019-03-22T08:47:34.240Z,9.80
2019-03-22T08:50:33.456Z,9.47
2019-03-22T08:53:34.521Z,10.30
2019-03-22T08:56:36.287Z,9.60
2019-03-22T08:59:37.293Z,9.60
2019-03-22T09:02:38.902Z,9.68
2019-03-22T09:05:40.015Z,9.88
2019-03-22T09:08:41.680Z,9.45
2019-03-22T09:11:43.310Z,10.48
2019-03-22T09:14:45.131Z,10.03
2019-03-22T09:17:46.556Z,9.53
2019-03-22T09:20:47.854Z,9.80
2019-03-22T09:23:37.099Z,9.68
2019-03-22T09:26:47.554Z,9.70
2019-03-22T09:29:41.648Z,10.23
2019-03-22T09:32:42.828Z,9.85
2019-03-22T09:35:44.557Z,9.58
2019-03-22T09:38:45.725Z,10.35
2019-03-22T09:41:47.151Z,10.32
2019-03-22T09:44:48.131Z,10.20
2019-03-22T09:47:49.796Z,9.35
2019-03-22T09:50:51.503Z,10.65
2019-03-22T09:53:53.440Z,10.80
2019-03-22T09:56:54.327Z,10.63
2019-03-22T09:59:55.921Z,11.78
2019-03-22T10:02:57.555Z,10.68
2019-03-22T10:05:58.476Z,10.72
2019-03-22T10:09:03.927Z,11.48
2019-03-22T10:12:03.263Z,11.05
2019-03-22T10:15:04.946Z,11.20
2019-03-22T10:18:06.404Z,11.80
2019-03-22T10:21:07.885Z,12.20
2019-03-22T10:24:09.811Z,11.18
2019-03-22T10:27:14.793Z,11.63
2019-03-22T10:30:16.332Z,11.93
2019-03-22T10:33:22.986Z,11.93
2019-03-22T10:36:08.735Z,11.93
2019-03-22T10:39:09.947Z,12.20
2019-03-22T10:42:11.654Z,11.53
2019-03-22T10:45:13.174Z,11.85
2019-03-22T10:48:14.574Z,12.60
2019-03-22T10:51:16.206Z,11.95
2019-03-22T10:54:16.814Z,11.33
2019-03-22T10:57:17.585Z,12.93
2019-03-22T11:00:18.324Z,12.10
2019-03-22T11:03:20.231Z,12.00
2019-03-22T11:06:26.265Z,11.65
2019-03-22T11:09:25.329Z,12.13
2019-03-22T11:12:26.337Z,12.63
2019-03-22T11:18:49.713Z,13.30
2019-03-22T11:21:50.337Z,12.10
2019-03-22T11:24:51.816Z,12.23
2019-03-22T11:27:52.614Z,13.13
2019-03-22T11:30:53.458Z,12.70
2019-03-22T11:33:54.925Z,12.93
2019-03-22T11:36:56.421Z,12.87
2019-03-22T11:39:57.735Z,13.53
2019-03-22T11:43:08.023Z,12.53
2019-03-22T11:46:01.695Z,12.93
2019-03-22T11:51:47.072Z,12.57
2019-03-22T11:54:48.355Z,12.53
2019-03-22T11:57:50.345Z,13.67
2019-03-22T12:00:55.102Z,12.43
2019-03-22T12:03:56.450Z,13.03
2019-03-22T12:06:57.903Z,13.33
2019-03-22T12:09:58.618Z,12.87
2019-03-22T12:12:59.970Z,13.70
2019-03-22T12:16:00.699Z,12.77
2019-03-22T12:19:01.448Z,13.70
2019-03-22T12:22:02.804Z,11.87
2019-03-22T12:25:03.350Z,13.43
2019-03-22T12:28:04.568Z,13.20
2019-03-22T12:31:05.401Z,13.50
2019-03-22T12:34:06.185Z,14.60
2019-03-22T12:37:06.887Z,13.60
2019-03-22T12:40:07.809Z,13.73
2019-03-22T12:43:08.804Z,13.60
2019-03-22T12:46:10.071Z,14.93
2019-03-22T12:49:11.342Z,14.43
2019-03-22T12:52:12.131Z,14.30
2019-03-22T12:55:13.541Z,14.93
2019-03-22T12:58:15.189Z,15.30
2019-03-22T13:04:04.643Z,14.50
2019-03-22T13:07:05.212Z,15.83
2019-03-22T13:10:05.733Z,16.77
2019-03-22T13:13:07.347Z,16.60
2019-03-22T13:16:07.945Z,16.57
2019-03-22T13:19:09.491Z,16.30
2019-03-22T13:22:10.924Z,15.33
2019-03-22T13:25:12.428Z,17.27
2019-03-22T13:28:13.766Z,17.07
2019-03-22T13:31:14.523Z,17.40
2019-03-22T13:34:15.100Z,16.70
2019-03-22T13:37:16.577Z,16.70
2019-03-22T13:40:17.610Z,18.30
2019-03-22T13:43:18.169Z,16.83
2019-03-22T13:46:19.697Z,18.00
2019-03-22T13:49:20.902Z,17.73
2019-03-22T13:52:22.204Z,17.93
2019-03-22T13:55:23.600Z,17.20
2019-03-22T13:58:24.930Z,17.50
2019-03-22T14:01:26.266Z,16.87
2019-03-22T14:04:26.859Z,17.60
2019-03-22T14:07:27.650Z,18.50
2019-03-22T14:10:28.569Z,17.93
2019-03-22T14:13:30.044Z,18.60
2019-03-22T14:16:31.515Z,21.70
2019-03-22T14:19:32.979Z,20.00
2019-03-22T14:22:33.748Z,18.70
2019-03-22T14:25:35.211Z,18.63
2019-03-22T14:28:36.751Z,18.83
2019-03-22T14:31:38.131Z,19.63
2019-03-22T14:34:38.916Z,19.23
2019-03-22T14:37:40.781Z,19.50
2019-03-22T14:40:30.177Z,19.25
2019-03-22T14:43:38.337Z,20.30
2019-03-22T14:46:39.038Z,19.40
2019-03-22T14:49:39.670Z,18.60
2019-03-22T14:52:41.311Z,18.60
2019-03-22T14:55:42.575Z,18.57
2019-03-22T14:58:31.792Z,18.67
2019-03-22T15:01:40.353Z,19.27
2019-03-22T15:04:41.747Z,18.25
2019-03-22T15:07:43.433Z,19.98
2019-03-22T15:10:44.030Z,19.23
2019-03-22T15:17:07.478Z,24.67
2019-03-22T15:20:35.162Z,20.17
2019-03-22T15:24:03.208Z,19.70
2019-03-22T15:27:18.334Z,18.82
2019-03-22T15:30:39.198Z,18.48
2019-03-22T15:34:05.057Z,19.35
2019-03-22T15:37:26.247Z,18.85
2019-03-22T15:40:28.243Z,18.37
2019-03-22T15:43:29.562Z,17.67
2019-03-22T15:46:31.248Z,18.82
2019-03-22T15:49:32.582Z,18.45
2019-03-22T15:52:34.119Z,18.32
2019-03-22T15:55:35.809Z,18.98
2019-03-22T15:58:37.367Z,18.95
2019-03-22T16:01:39.130Z,17.92
2019-03-22T16:04:40.517Z,19.40
2019-03-22T16:07:41.546Z,19.35
2019-03-22T16:10:43.202Z,18.67
2019-03-22T16:13:44.770Z,19.00
2019-03-22T16:16:46.194Z,18.48
2019-03-22T16:19:47.306Z,16.70
2019-03-22T16:25:32.162Z,16.57
2019-03-22T16:28:33.825Z,17.70
2019-03-22T16:31:35.175Z,17.25
2019-03-22T16:34:36.535Z,18.02
2019-03-22T16:37:37.555Z,18.35
2019-03-22T16:40:39.265Z,17.50
2019-03-22T16:43:40.971Z,17.80
2019-03-22T16:46:42.239Z,17.80
2019-03-22T16:49:43.387Z,16.75
2019-03-22T16:52:44.875Z,17.77
2019-03-22T16:55:46.385Z,17.92
2019-03-22T16:58:47.517Z,18.62
2019-03-22T17:01:49.233Z,19.25
2019-03-22T17:04:50.569Z,18.23
2019-03-22T17:07:52.067Z,17.73
2019-03-22T17:10:53.636Z,43.15
2019-03-22T17:13:55.199Z,27.02
2019-03-22T17:16:56.205Z,17.73
2019-03-22T17:19:57.626Z,21.30
2019-03-22T17:22:59.318Z,23.70
2019-03-22T17:26:00.653Z,18.80
2019-03-22T17:29:02.082Z,19.92
2019-03-22T17:32:03.843Z,22.70
2019-03-22T17:35:04.729Z,21.65
2019-03-22T17:38:06.250Z,21.12
2019-03-22T17:41:07.950Z,21.33
2019-03-22T17:44:10.741Z,19.12
2019-03-22T17:47:12.230Z,17.60
2019-03-22T17:50:13.700Z,17.85
2019-03-22T17:53:15.506Z,17.00
2019-03-22T17:56:16.939Z,19.95
2019-03-22T17:59:18.446Z,18.40
2019-03-22T18:02:19.523Z,14.83
2019-03-22T18:05:20.293Z,26.63
2019-03-22T18:08:20.923Z,24.03
2019-03-22T18:11:21.635Z,22.07
2019-03-22T18:14:22.131Z,34.60
2019-03-22T18:17:22.415Z,28.37
2019-03-22T18:20:23.512Z,23.67
2019-03-22T18:23:24.259Z,21.20
2019-03-22T18:26:24.810Z,19.83
2019-03-22T18:29:26.938Z,18.27
2019-03-22T18:32:28.239Z,23.27
2019-03-22T18:35:29.513Z,23.67
2019-03-22T18:38:29.813Z,21.37
2019-03-22T18:41:30.299Z,18.57
2019-03-22T18:44:31.274Z,17.93
2019-03-22T18:47:31.604Z,17.70
2019-03-22T18:50:32.339Z,21.40
2019-03-22T18:53:33.546Z,24.23
2019-03-22T18:56:33.921Z,28.60
2019-03-22T18:59:34.212Z,47.13
2019-03-22T19:02:34.916Z,30.63
2019-03-22T19:05:35.587Z,24.20
2019-03-22T19:08:36.412Z,20.83
2019-03-22T19:11:36.739Z,18.37
2019-03-22T19:14:37.075Z,20.77
2019-03-22T19:17:37.861Z,45.47
2019-03-22T19:20:38.400Z,34.33
2019-03-22T19:23:38.961Z,33.10
2019-03-22T19:26:39.299Z,29.43
2019-03-22T19:29:39.714Z,23.30
2019-03-22T19:32:40.775Z,22.17
2019-03-22T19:35:41.633Z,20.20
2019-03-22T19:38:42.362Z,19.27
2019-03-22T19:41:42.806Z,18.53
2019-03-22T19:44:44.118Z,19.77
2019-03-22T19:47:45.397Z,17.20
2019-03-22T19:50:46.157Z,16.97
2019-03-22T19:53:46.796Z,15.40
2019-03-22T19:56:47.158Z,15.93
2019-03-22T19:59:47.698Z,16.03
2019-03-22T20:02:49.383Z,16.60
2019-03-22T20:05:50.468Z,15.10
2019-03-22T20:08:51.433Z,15.43
2019-03-22T20:11:52.869Z,15.87
2019-03-22T20:14:53.290Z,14.57
2019-03-22T20:17:54.009Z,17.03
2019-03-22T20:20:54.286Z,15.63
2019-03-22T20:23:54.985Z,15.40
2019-03-22T20:26:55.516Z,15.53
2019-03-22T20:29:56.090Z,15.40
2019-03-22T20:32:57.025Z,15.53
2019-03-22T20:35:57.672Z,16.43
2019-03-22T20:38:58.273Z,15.77
2019-03-22T20:41:58.615Z,16.00
2019-03-22T20:44:59.253Z,16.03
2019-03-22T20:47:59.750Z,15.73
2019-03-22T20:51:00.582Z,15.37
2019-03-22T20:54:01.054Z,16.77
2019-03-22T20:57:01.626Z,16.77
2019-03-22T21:00:02.094Z,15.80
2019-03-22T21:03:02.420Z,16.00
2019-03-22T21:06:04.563Z,16.40
2019-03-22T21:09:05.728Z,15.80
2019-03-22T21:12:06.964Z,16.83
2019-03-22T21:15:07.461Z,16.53
2019-03-22T21:18:08.319Z,19.43
2019-03-22T21:21:08.634Z,17.40
2019-03-22T21:24:09.122Z,16.83
2019-03-22T21:27:15.558Z,18.53
2019-03-22T21:30:12.684Z,21.97
2019-03-22T21:33:01.618Z,24.80
2019-03-22T21:36:09.510Z,23.17
2019-03-22T21:39:09.858Z,19.43
2019-03-22T21:42:10.180Z,26.13
2019-03-22T21:45:10.573Z,17.90
2019-03-22T21:48:10.865Z,18.63
2019-03-22T21:51:11.226Z,16.53
2019-03-22T21:54:11.977Z,17.30
2019-03-22T21:57:12.405Z,18.13
2019-03-22T22:00:12.964Z,17.37
2019-03-22T22:03:13.594Z,16.73
2019-03-22T22:06:14.828Z,16.63
2019-03-22T22:09:15.303Z,17.50
2019-03-22T22:12:16.467Z,18.10
2019-03-22T22:15:24.431Z,18.20
2019-03-22T22:18:32.344Z,17.63
2019-03-22T22:21:33.133Z,17.07
2019-03-22T22:24:33.523Z,17.17
2019-03-22T22:27:34.132Z,17.33
2019-03-22T22:30:35.009Z,17.13
2019-03-22T22:33:35.602Z,17.60
2019-03-22T22:36:35.906Z,16.83
2019-03-22T22:39:36.355Z,16.90
2019-03-22T22:42:37.461Z,18.33
2019-03-22T22:45:38.186Z,17.27
2019-03-22T22:48:38.818Z,17.93
2019-03-22T22:51:39.577Z,18.47
2019-03-22T22:54:40.218Z,18.43
2019-03-22T22:57:40.751Z,18.60
2019-03-22T23:00:41.597Z,18.87
2019-03-22T23:03:42.871Z,18.83
2019-03-22T23:06:43.486Z,18.23
2019-03-22T23:09:43.865Z,18.60
2019-03-22T23:12:44.329Z,18.67
2019-03-22T23:15:45.210Z,17.40
2019-03-22T23:18:45.590Z,17.30
2019-03-22T23:21:46.131Z,18.07
2019-03-22T23:24:47.214Z,17.83
2019-03-22T23:27:47.598Z,18.27
2019-03-22T23:30:47.924Z,17.70
2019-03-22T23:33:48.605Z,18.47
2019-03-22T23:36:49.336Z,18.20
2019-03-22T23:39:49.757Z,20.10
2019-03-22T23:42:50.741Z,19.10
2019-03-22T23:45:51.922Z,19.60
2019-03-22T23:48:52.761Z,19.80
2019-03-22T23:51:53.297Z,18.77
2019-03-22T23:54:54.031Z,19.13
2019-03-22T23:57:55.161Z,19.03
